Time;durP1;ratioP1;P1;durP2;ratioP2;P2;SDS_P1;SDS_P2;PMS_P1;PMS_P2;Temp;Humidity;BMP_temperature;BMP_pressure;BME280_temperature;BME280_humidity;BME280_pressure;Samples;Min_cycle;Max_cycle;Signal;HPM_P1;HPM_P2
2022/12/19 00:01:16;;;;;;;11.93;8.68;;;;;;;-8.26;77.55;145295.53;5030262;28;20097;-60
2022/12/19 00:03:47;;;;;;;10.82;7.70;;;;;;;-8.42;77.72;145257.66;5028492;28;20030;-60
2022/12/19 00:06:14;;;;;;;10.30;7.32;;;;;;;-8.34;78.09;145277.88;5046146;28;20029;-60
2022/12/19 00:08:41;;;;;;;10.68;7.40;;;;;;;-8.54;77.94;145227.41;5043432;28;20045;-61
2022/12/19 00:11:07;;;;;;;8.68;6.93;;;;;;;-8.53;78.45;145229.97;5043538;28;20029;-60
2022/12/19 00:13:33;;;;;;;9.45;6.70;;;;;;;-8.61;78.97;145211.00;5027228;28;20049;-60
2022/12/19 00:16:07;;;;;;;9.18;6.97;;;;;;;-8.53;78.88;145229.97;5023434;28;20038;-60
2022/12/19 00:18:33;;;;;;;8.70;6.43;;;;;;;-8.52;79.17;145232.50;5031487;28;20034;-60
2022/12/19 00:21:00;;;;;;;8.50;6.13;;;;;;;-8.38;78.77;145266.47;5040148;28;20068;-60
2022/12/19 00:23:28;;;;;;;9.20;6.75;;;;;;;-8.30;78.93;145285.44;5039449;28;20210;-60
2022/12/19 00:25:54;;;;;;;8.98;6.47;;;;;;;-8.27;78.41;145293.00;5024017;28;20026;-60
2022/12/19 00:28:20;;;;;;;8.60;5.53;;;;;;;-8.34;78.23;145276.56;5023376;28;20356;-61
2022/12/19 00:30:45;;;;;;;9.55;6.30;;;;;;;-8.22;78.70;145305.56;5048241;28;20029;-60
2022/12/19 00:33:11;;;;;;;8.68;6.32;;;;;;;-8.23;77.71;145304.34;5040651;28;20032;-61
2022/12/19 00:35:36;;;;;;;7.57;6.15;;;;;;;-8.22;77.39;145306.88;5034465;28;20037;-60
2022/12/19 00:38:03;;;;;;;8.27;5.70;;;;;;;-8.32;78.09;145281.66;5024449;28;20390;-60
2022/12/19 00:40:28;;;;;;;7.97;6.20;;;;;;;-8.20;77.93;145310.66;5023212;28;20036;-62
2022/12/19 00:42:54;;;;;;;8.35;6.00;;;;;;;-8.13;77.86;145327.06;5033280;28;20033;-60
2022/12/19 00:45:20;;;;;;;9.10;6.10;;;;;;;-8.06;79.00;145344.75;5037340;28;20287;-61
2022/12/19 00:47:46;;;;;;;7.68;5.88;;;;;;;-8.21;78.15;145308.13;5024269;28;20037;-60
2022/12/19 00:50:11;;;;;;;8.10;6.10;;;;;;;-7.98;78.48;145364.91;5043002;28;20037;-59
2022/12/19 00:52:37;;;;;;;7.60;5.30;;;;;;;-7.93;78.27;145377.53;5026559;28;20025;-60
2022/12/19 00:55:03;;;;;;;7.18;5.50;;;;;;;-7.88;78.60;145390.19;5024308;28;20030;-60
2022/12/19 00:57:29;;;;;;;8.93;6.03;;;;;;;-7.83;79.18;145402.78;5043048;28;20033;-61
2022/12/19 00:59:54;;;;;;;7.15;5.22;;;;;;;-7.82;79.34;145404.06;5043399;28;20029;-60
2022/12/19 01:02:20;;;;;;;8.57;5.97;;;;;;;-7.84;79.68;145400.28;5030013;28;20041;-61
2022/12/19 01:04:45;;;;;;;8.13;5.82;;;;;;;-7.71;79.56;145430.53;5029409;28;20041;-60
2022/12/19 01:07:11;;;;;;;7.93;5.93;;;;;;;-7.69;79.38;145436.88;5045943;28;20033;-60
2022/12/19 01:09:37;;;;;;;8.73;5.63;;;;;;;-7.59;79.86;145459.63;5038976;28;20030;-61
2022/12/19 01:14:48;;;;;;;10.10;6.57;;;;;;;-7.68;80.98;145439.41;5044943;28;20025;-60
2022/12/19 01:17:14;;;;;;;6.03;4.82;;;;;;;-7.65;80.84;145445.72;5025978;28;20163;-60
2022/12/19 01:19:39;;;;;;;9.13;6.43;;;;;;;-7.72;80.56;145428.06;5026831;28;20253;-61
2022/12/19 01:22:05;;;;;;;8.02;5.80;;;;;;;-7.71;81.25;145431.84;5034009;28;20209;-60
2022/12/19 01:24:30;;;;;;;10.05;5.85;;;;;;;-7.68;82.12;145438.13;5033627;28;20017;-61
2022/12/19 01:26:56;;;;;;;7.80;5.70;;;;;;;-7.63;81.78;145450.75;5044123;28;20029;-61
2022/12/19 01:29:21;;;;;;;7.43;5.82;;;;;;;-7.57;82.77;145465.91;5026942;28;20022;-61
2022/12/19 01:31:47;;;;;;;9.90;6.18;;;;;;;-7.53;82.80;145476.00;5043781;28;20025;-61
2022/12/19 01:34:12;;;;;;;7.82;6.00;;;;;;;-7.62;83.34;145453.28;5033682;28;20061;-60
2022/12/19 01:36:38;;;;;;;8.32;6.22;;;;;;;-7.47;83.04;145491.19;5034184;28;20328;-60
2022/12/19 01:39:03;;;;;;;8.57;6.35;;;;;;;-7.48;83.23;145488.66;5037355;28;20032;-61
2022/12/19 01:41:29;;;;;;;8.15;6.32;;;;;;;-7.49;83.19;145486.09;5026828;28;20029;-61
2022/12/19 01:44:04;;;;;;;13.32;6.55;;;;;;;-7.56;83.14;145468.44;5044421;28;20048;-60
2022/12/19 01:46:48;;;;;;;9.05;6.90;;;;;;;-7.52;83.74;145478.53;5039561;28;20029;-61
2022/12/19 01:49:34;;;;;;;8.18;5.95;;;;;;;-7.36;82.98;145517.69;5033412;28;20026;-59
2022/12/19 01:52:05;;;;;;;8.73;6.03;;;;;;;-7.50;84.29;145482.31;5026240;28;20037;-61
2022/12/19 01:54:35;;;;;;;10.13;6.93;;;;;;;-7.47;84.06;145489.88;5032817;28;20092;-60
2022/12/19 01:57:03;;;;;;;9.38;6.13;;;;;;;-7.43;84.70;145498.75;5046076;28;20060;-61
2022/12/19 01:59:30;;;;;;;10.00;6.38;;;;;;;-7.46;84.47;145493.69;5046165;28;20074;-60
2022/12/19 02:02:02;;;;;;;9.43;6.40;;;;;;;-7.31;84.77;145529.03;5027719;28;20344;-60
2022/12/19 02:04:30;;;;;;;10.27;6.90;;;;;;;-7.41;84.26;145503.78;5040520;28;20026;-61
2022/12/19 02:06:57;;;;;;;11.43;6.78;;;;;;;-7.31;84.55;145529.03;5049332;28;20025;-60
2022/12/19 02:09:23;;;;;;;11.35;6.50;;;;;;;-7.18;84.92;145561.91;5045564;28;20029;-61
2022/12/19 02:11:48;;;;;;;11.43;6.65;;;;;;;-7.23;84.57;145549.25;5044698;28;20029;-60
2022/12/19 02:14:14;;;;;;;10.40;6.65;;;;;;;-7.19;84.77;145558.13;5025680;28;20033;-61
2022/12/19 02:17:17;;;;;;;9.13;6.50;;;;;;;-7.15;83.93;145568.22;5043661;28;20068;-60
2022/12/19 02:20:15;;;;;;;8.98;6.40;;;;;;;-7.22;84.44;145551.78;5045815;28;20037;-59
2022/12/19 02:22:50;;;;;;;11.80;6.53;;;;;;;-7.07;84.85;145588.41;5052558;28;20286;-60
2022/12/19 02:25:27;;;;;;;10.20;7.00;;;;;;;-7.02;83.80;145599.81;5031684;28;20191;-60
2022/12/19 02:28:23;;;;;;;11.57;7.20;;;;;;;-6.96;83.60;145614.94;5034673;28;20096;-60
2022/12/19 02:31:18;;;;;;;12.60;7.10;;;;;;;-7.02;84.24;145601.06;5043888;28;20191;-59
2022/12/19 02:33:51;;;;;;;12.95;7.63;;;;;;;-6.93;83.22;145622.53;5045071;28;20048;-60
2022/12/19 02:36:45;;;;;;;11.40;6.93;;;;;;;-6.94;84.42;145619.97;5027924;28;20107;-60
2022/12/19 02:39:18;;;;;;;11.35;7.40;;;;;;;-6.97;84.75;145613.69;5034171;28;20072;-59
2022/12/19 02:41:55;;;;;;;12.32;7.25;;;;;;;-6.95;84.47;145617.47;5034620;28;20049;-61
2022/12/19 02:44:32;;;;;;;12.30;7.22;;;;;;;-6.87;85.19;145636.41;5025583;28;20030;-60
2022/12/19 02:47:01;;;;;;;11.57;7.50;;;;;;;-6.90;84.73;145630.09;5025210;28;20052;-59
2022/12/19 02:49:32;;;;;;;12.00;7.53;;;;;;;-6.70;83.57;145678.13;5032234;28;20030;-58
2022/12/19 02:52:19;;;;;;;12.90;8.23;;;;;;;-6.94;83.52;145619.97;5034725;28;20326;-60
2022/12/19 02:54:50;;;;;;;11.75;7.85;;;;;;;-6.82;85.23;145649.06;5036626;28;20044;-59
2022/12/19 02:57:20;;;;;;;;;;;;;;;-6.72;85.58;145673.09;5044764;28;20074;-60
2022/12/19 03:00:04;;;;;;;12.93;7.85;;;;;;;-6.61;85.48;145700.91;5044714;28;19950;-61
2022/12/19 03:03:08;;;;;;;13.10;7.90;;;;;;;-6.62;84.31;145699.59;5029125;28;20029;-59
2022/12/19 03:05:53;;;;;;;12.80;7.80;;;;;;;-6.72;84.77;145674.34;5033072;28;20041;-60
2022/12/19 03:08:28;;;;;;;12.88;7.80;;;;;;;-6.56;84.31;145713.50;5023779;28;20026;-60
2022/12/19 03:11:08;;;;;;;13.32;8.35;;;;;;;-6.71;84.92;145676.88;5041788;28;20021;-60
2022/12/19 03:13:40;;;;;;;12.70;7.90;;;;;;;-6.52;84.79;145723.63;5029828;28;20036;-60
2022/12/19 03:16:08;;;;;;;14.25;8.25;;;;;;;-6.55;83.93;145716.03;5034357;28;20175;-60
2022/12/19 03:18:35;;;;;;;10.65;7.43;;;;;;;-6.31;85.02;145775.44;5037893;28;20037;-61
2022/12/19 03:21:03;;;;;;;12.98;8.23;;;;;;;-6.36;83.21;145762.78;5025823;28;20042;-60
2022/12/19 03:23:29;;;;;;;11.73;7.85;;;;;;;-6.37;84.52;145759.00;5028157;28;20041;-61
2022/12/19 03:25:59;;;;;;;14.45;8.48;;;;;;;-6.30;83.80;145776.69;5041498;28;20214;-61
2022/12/19 03:28:53;;;;;;;13.65;8.13;;;;;;;-6.21;83.69;145799.47;5030904;28;20030;-58
2022/12/19 03:31:23;;;;;;;12.15;8.30;;;;;;;-6.31;83.88;145774.22;5029274;28;20025;-60
2022/12/19 03:33:54;;;;;;;14.43;7.65;;;;;;;-6.22;83.37;145796.94;5024010;28;20083;-60
2022/12/19 03:36:23;;;;;;;;;;;;;;;-6.15;83.87;145813.38;5028907;28;20033;-60
2022/12/19 03:38:49;;;;;;;11.77;8.13;;;;;;;-6.19;83.29;145804.50;5043804;28;19905;-61
2022/12/19 03:43:07;;;;;;;12.02;7.75;;;;;;;-6.07;84.00;145834.88;5024179;28;20089;-62
2022/12/19 03:44:06;;;;;;;12.35;7.80;;;;;;;-6.19;83.32;145804.50;5042434;28;20493;-61
2022/12/19 03:46:34;;;;;;;12.73;7.90;;;;;;;-6.15;83.31;145813.38;5043836;28;20316;-61
2022/12/19 03:49:00;;;;;;;13.25;7.60;;;;;;;-5.86;83.67;145885.38;5043791;28;20090;-60
2022/12/19 03:51:30;;;;;;;12.02;7.63;;;;;;;-5.82;84.13;145894.25;5038755;28;20038;-61
2022/12/19 03:54:01;;;;;;;9.93;7.18;;;;;;;-5.93;83.15;145867.69;5024133;28;20030;-60
2022/12/19 03:56:41;;;;;;;14.07;7.40;;;;;;;-5.79;82.83;145901.84;5036461;28;20131;-61
2022/12/19 03:59:15;;;;;;;10.90;6.25;;;;;;;-5.97;83.86;145858.84;5044000;28;20071;-61
2022/12/19 04:01:42;;;;;;;9.98;6.85;;;;;;;-5.77;83.68;145908.19;5043401;28;20021;-61
2022/12/19 04:04:10;;;;;;;12.65;5.97;;;;;;;-5.83;83.68;145891.72;5032827;28;20025;-60
2022/12/19 04:06:38;;;;;;;9.45;5.95;;;;;;;-6.04;84.87;145839.91;5030032;28;20088;-60
2022/12/19 04:09:04;;;;;;;8.85;5.93;;;;;;;-5.76;85.07;145909.41;5041855;28;20033;-61
2022/12/19 04:11:37;;;;;;;8.55;5.38;;;;;;;-5.84;83.69;145889.19;5023534;28;20028;-62
2022/12/19 04:14:16;;;;;;;11.20;5.70;;;;;;;-5.74;84.26;145915.75;5037075;28;20042;-63
2022/12/19 04:16:54;;;;;;;8.07;5.32;;;;;;;-5.61;84.02;145946.13;5026952;28;20052;-62
2022/12/19 04:19:27;;;;;;;10.73;6.22;;;;;;;-5.64;83.25;145939.78;5023669;28;20030;-63
2022/12/19 04:22:11;;;;;;;10.65;7.00;;;;;;;-5.75;83.96;145913.22;5028612;28;20212;-62
2022/12/19 04:24:38;;;;;;;11.63;6.90;;;;;;;-5.61;83.16;145946.13;5029572;28;20099;-63
2022/12/19 04:27:07;;;;;;;13.20;6.72;;;;;;;-5.87;83.22;145882.91;5039843;28;20033;-63
2022/12/19 04:29:35;;;;;;;12.25;7.43;;;;;;;-5.74;84.39;145915.75;5023493;28;20030;-63
2022/12/19 04:32:03;;;;;;;13.13;6.90;;;;;;;-5.68;83.23;145928.41;5040660;28;20026;-62
2022/12/19 04:34:29;;;;;;;10.90;6.93;;;;;;;-5.65;83.11;145937.25;5028584;28;20022;-62
2022/12/19 04:36:55;;;;;;;11.63;7.38;;;;;;;-5.79;82.55;145901.84;5030385;28;20071;-62
2022/12/19 04:39:20;;;;;;;10.35;7.43;;;;;;;-5.65;83.06;145937.25;5039086;28;20426;-63
2022/12/19 04:41:46;;;;;;;11.15;7.63;;;;;;;-5.76;82.68;145909.41;5044355;28;20346;-62
2022/12/19 04:44:11;;;;;;;13.18;7.82;;;;;;;-5.76;83.42;145909.41;5031108;28;20042;-62
2022/12/19 04:46:37;;;;;;;14.32;8.10;;;;;;;-5.76;83.56;145909.41;5037186;28;20025;-62
2022/12/19 04:49:02;;;;;;;11.82;8.02;;;;;;;-5.77;83.93;145906.88;5033336;28;20032;-62
2022/12/19 04:51:28;;;;;;;13.93;7.90;;;;;;;-5.78;84.22;145905.63;5027725;28;20046;-60
2022/12/19 04:53:53;;;;;;;14.43;8.13;;;;;;;-5.72;84.40;145920.78;5041848;28;20096;-62
2022/12/19 04:56:19;;;;;;;10.85;7.38;;;;;;;-5.67;83.71;145930.91;5034346;28;20068;-62
2022/12/19 04:58:44;;;;;;;13.63;8.00;;;;;;;-5.72;84.23;145920.78;5026781;28;20056;-61
2022/12/19 05:01:12;;;;;;;13.10;7.85;;;;;;;-5.62;85.05;145943.59;5022898;28;20237;-61
2022/12/19 05:03:38;;;;;;;11.43;7.07;;;;;;;-6.00;83.72;145850.03;5030176;28;20049;-61
2022/12/19 05:06:11;;;;;;;12.80;7.35;;;;;;;-5.60;83.38;145948.63;5032637;28;20427;-61
2022/12/19 05:08:38;;;;;;;15.40;8.30;;;;;;;-5.69;84.77;145925.88;5027490;28;20026;-62
2022/12/19 05:11:05;;;;;;;11.75;7.03;;;;;;;-5.55;85.08;145961.28;5022747;28;20218;-62
2022/12/19 05:13:31;;;;;;;12.40;6.80;;;;;;;-5.60;84.62;145948.63;5035906;28;20033;-61
2022/12/19 05:15:59;;;;;;;12.07;7.40;;;;;;;-5.68;83.98;145929.66;5033754;28;20100;-61
2022/12/19 05:18:25;;;;;;;10.98;7.15;;;;;;;-5.60;84.05;145948.63;5022835;28;20252;-61
2022/12/19 05:20:51;;;;;;;11.65;7.28;;;;;;;-5.63;84.69;145941.03;5022172;28;20287;-61
2022/12/19 05:23:17;;;;;;;10.93;6.80;;;;;;;-5.59;84.68;145952.41;5027378;28;20029;-60
2022/12/19 05:25:42;;;;;;;11.45;7.15;;;;;;;-5.43;83.42;145990.38;5022831;28;20041;-61
2022/12/19 05:28:08;;;;;;;10.98;6.82;;;;;;;-5.74;84.33;145915.75;5031227;28;20246;-62
2022/12/19 05:30:33;;;;;;;11.23;7.00;;;;;;;-5.60;84.26;145948.63;5042400;28;20022;-61
2022/12/19 05:33:00;;;;;;;13.20;7.35;;;;;;;-5.50;85.46;145973.97;5042091;28;20424;-61
2022/12/19 05:35:26;;;;;;;14.20;8.70;;;;;;;-5.40;84.50;145997.97;5021684;28;20029;-61
2022/12/19 05:37:51;;;;;;;11.25;7.43;;;;;;;-5.39;84.69;146001.78;5038295;28;20041;-60
2022/12/19 05:40:17;;;;;;;11.98;7.53;;;;;;;-5.36;83.31;146008.09;5031444;28;20045;-61
2022/12/19 05:42:43;;;;;;;10.82;6.97;;;;;;;-5.42;84.04;145992.91;5028729;28;20033;-62
2022/12/19 05:45:09;;;;;;;15.82;8.95;;;;;;;-5.42;84.17;145994.16;5042521;28;20029;-60
2022/12/19 05:47:34;;;;;;;12.98;7.03;;;;;;;-5.30;85.79;146022.00;5043663;28;20048;-62
2022/12/19 05:50:00;;;;;;;10.63;6.28;;;;;;;-5.26;83.79;146033.44;5029260;28;20025;-61
2022/12/19 05:52:25;;;;;;;11.95;7.35;;;;;;;-5.32;84.07;146016.97;5026002;28;20037;-60
2022/12/19 05:54:51;;;;;;;10.77;6.95;;;;;;;-5.27;85.14;146029.63;5033244;28;20041;-61
2022/12/19 05:57:16;;;;;;;14.82;7.68;;;;;;;-5.38;83.89;146003.03;5043235;28;20036;-62
2022/12/19 05:59:42;;;;;;;11.25;7.05;;;;;;;-5.32;84.12;146016.97;5026032;28;20022;-61
2022/12/19 06:02:07;;;;;;;9.90;6.53;;;;;;;-5.47;84.34;145980.25;5043607;28;20257;-61
2022/12/19 06:04:33;;;;;;;9.23;6.82;;;;;;;-5.35;84.36;146010.63;5045549;28;20071;-62
2022/12/19 06:06:59;;;;;;;11.77;6.97;;;;;;;-5.29;84.81;146024.53;5037502;28;20149;-59
2022/12/19 06:09:24;;;;;;;10.50;6.88;;;;;;;-5.23;84.53;146041.00;5035692;28;20034;-61
2022/12/19 06:11:50;;;;;;;9.90;7.05;;;;;;;-5.21;84.26;146044.81;5035159;28;20085;-60
2022/12/19 06:14:16;;;;;;;11.75;7.95;;;;;;;-5.35;83.68;146010.63;5034921;28;20034;-61
2022/12/19 06:16:41;;;;;;;10.45;6.80;;;;;;;-5.40;84.47;145999.25;5034531;28;20041;-61
2022/12/19 06:19:07;;;;;;;10.80;6.75;;;;;;;-5.37;84.42;146005.59;5037950;28;20025;-61
2022/12/19 06:21:32;;;;;;;10.52;7.22;;;;;;;-5.31;84.63;146019.50;5033025;28;20021;-61
2022/12/19 06:23:58;;;;;;;11.77;7.55;;;;;;;-5.33;82.92;146014.44;5035737;28;20028;-62
2022/12/19 06:26:24;;;;;;;11.18;7.55;;;;;;;-5.17;83.88;146054.94;5039882;28;20075;-62
2022/12/19 06:28:51;;;;;;;11.50;7.18;;;;;;;-5.20;83.40;146047.34;5029729;28;20278;-62
2022/12/19 06:31:18;;;;;;;10.98;7.63;;;;;;;-5.28;84.13;146027.09;5034181;28;20250;-62
2022/12/19 06:33:44;;;;;;;11.38;7.53;;;;;;;-5.25;84.25;146034.69;5045008;28;20029;-61
2022/12/19 06:36:21;;;;;;;47.97;23.55;;;;;;;-5.28;84.19;146027.09;5028887;28;20064;-62
2022/12/19 06:38:48;;;;;;;12.13;7.30;;;;;;;-5.10;83.09;146071.34;5024054;28;20136;-61
2022/12/19 06:43:59;;;;;;;10.68;6.95;;;;;;;-4.99;82.56;146099.19;5039278;28;20040;-62
2022/12/19 06:46:24;;;;;;;11.13;7.22;;;;;;;-5.12;83.68;146067.56;5032769;28;20141;-61
2022/12/19 06:48:50;;;;;;;13.93;8.27;;;;;;;-4.94;83.94;146111.88;5024963;28;20508;-61
2022/12/19 06:51:16;;;;;;;13.48;7.65;;;;;;;-4.91;83.69;146119.47;5034982;28;20021;-61
2022/12/19 06:53:41;;;;;;;12.20;7.30;;;;;;;-4.87;83.02;146128.34;5034816;28;20032;-62
2022/12/19 06:56:07;;;;;;;10.65;7.15;;;;;;;-4.77;82.75;146152.41;5035636;28;20226;-61
2022/12/19 06:58:33;;;;;;;22.73;12.70;;;;;;;-4.80;83.11;146146.06;5036035;28;20030;-61
2022/12/19 07:01:00;;;;;;;10.48;6.75;;;;;;;-5.07;82.03;146079.00;5038205;28;20076;-61
2022/12/19 07:03:38;;;;;;;13.45;7.20;;;;;;;-5.08;83.12;146077.69;5033371;28;20377;-62
2022/12/19 07:06:05;;;;;;;9.75;6.88;;;;;;;-4.96;81.98;146105.53;5042353;28;20040;-62
2022/12/19 07:08:31;;;;;;;10.82;7.05;;;;;;;-5.09;83.17;146075.19;5037812;28;20322;-61
2022/12/19 07:10:57;;;;;;;12.63;7.53;;;;;;;-5.00;82.70;146095.41;5024636;28;20030;-60
2022/12/19 07:13:23;;;;;;;11.90;6.55;;;;;;;-4.97;84.07;146104.28;5024647;28;20360;-61
2022/12/19 07:15:50;;;;;;;12.13;7.47;;;;;;;-4.89;83.19;146124.56;5028241;28;20041;-61
2022/12/19 07:18:15;;;;;;;11.68;7.13;;;;;;;-4.85;83.41;146133.38;5024344;28;20030;-61
2022/12/19 07:20:42;;;;;;;13.02;7.40;;;;;;;-4.74;82.48;146160.00;5024435;28;20029;-61
2022/12/19 07:23:15;;;;;;;11.13;7.15;;;;;;;-4.86;82.78;146130.84;5028360;28;20021;-61
2022/12/19 07:28:26;;;;;;;12.40;7.72;;;;;;;-4.77;83.45;146153.66;5044151;28;20021;-62
2022/12/19 07:30:52;;;;;;;13.13;7.78;;;;;;;-4.68;83.45;146176.41;5036728;28;20355;-61
2022/12/19 07:33:17;;;;;;;14.43;7.90;;;;;;;-4.70;83.41;146171.38;5033399;28;20037;-61
2022/12/19 07:35:43;;;;;;;11.27;7.40;;;;;;;-4.66;83.03;146180.22;5031964;28;20040;-60
2022/12/19 07:38:08;;;;;;;14.18;7.68;;;;;;;-4.70;84.04;146170.13;5032719;28;20071;-61
2022/12/19 07:40:34;;;;;;;11.23;7.07;;;;;;;-4.91;84.20;146119.47;5039102;28;20022;-61
2022/12/19 07:43:05;;;;;;;9.90;6.38;;;;;;;-4.92;84.46;146115.66;5030919;28;20105;-62
2022/12/19 07:45:31;;;;;;;10.50;7.23;;;;;;;-4.78;84.27;146151.09;5035077;28;20363;-61
2022/12/19 07:48:01;;;;;;;12.40;7.15;;;;;;;-4.76;84.53;146154.91;5030290;28;20017;-60
2022/12/19 07:50:27;;;;;;;11.32;7.63;;;;;;;-4.56;83.99;146204.28;5034322;28;20029;-60
2022/12/19 07:52:52;;;;;;;12.50;7.30;;;;;;;-4.84;83.93;146135.94;5030018;28;20024;-60
2022/12/19 07:55:18;;;;;;;10.77;7.38;;;;;;;-4.83;83.74;146138.47;5028792;28;20125;-61
2022/12/19 07:57:43;;;;;;;12.15;7.20;;;;;;;-4.86;84.17;146132.13;5028596;28;20040;-61
2022/12/19 08:00:10;;;;;;;12.57;7.57;;;;;;;-4.65;83.94;146181.50;5032246;28;20042;-62
2022/12/19 08:02:35;;;;;;;28.25;12.98;;;;;;;-4.71;84.03;146168.81;5031367;28;20084;-61
2022/12/19 08:05:01;;;;;;;12.38;7.93;;;;;;;-4.81;83.80;146143.53;5031208;28;20214;-61
2022/12/19 08:07:27;;;;;;;12.20;7.35;;;;;;;-4.64;83.89;146184.06;5031801;28;20018;-61
2022/12/19 08:09:52;;;;;;;13.77;8.27;;;;;;;-4.62;83.49;146189.09;5028066;28;20025;-62
2022/12/19 08:12:18;;;;;;;11.45;7.97;;;;;;;-4.52;84.10;146215.69;5019518;28;20018;-62
2022/12/19 08:14:44;;;;;;;12.65;8.10;;;;;;;-4.47;83.42;146227.09;5037595;28;20036;-62
2022/12/19 08:17:09;;;;;;;16.23;8.32;;;;;;;-4.61;84.97;146191.63;5035129;28;20041;-62
2022/12/19 08:19:35;;;;;;;13.95;8.65;;;;;;;-4.55;84.79;146206.81;5043023;28;20040;-62
2022/12/19 08:22:01;;;;;;;13.73;8.05;;;;;;;-4.64;84.02;146185.31;5040966;28;20021;-61
2022/12/19 08:24:26;;;;;;;14.48;8.18;;;;;;;-4.59;83.66;146196.69;5034550;28;20026;-60
2022/12/19 08:26:52;;;;;;;12.60;8.50;;;;;;;-4.53;84.61;146213.16;5029392;28;20026;-61
2022/12/19 08:29:18;;;;;;;10.38;7.05;;;;;;;-4.65;84.90;146181.50;5030389;28;20063;-61
2022/12/19 08:31:44;;;;;;;15.32;8.48;;;;;;;-4.51;83.85;146218.19;5033730;28;20021;-62
2022/12/19 08:34:09;;;;;;;14.90;7.95;;;;;;;-4.50;84.62;146219.50;5028778;28;20033;-62
2022/12/19 08:36:36;;;;;;;14.25;8.07;;;;;;;-4.36;83.97;146254.94;5029213;28;20038;-61
2022/12/19 08:39:02;;;;;;;15.50;8.02;;;;;;;-4.32;84.05;146263.78;5029278;28;20472;-61
2022/12/19 08:41:27;;;;;;;16.10;8.15;;;;;;;-4.36;84.41;146254.94;5031926;28;20071;-61
2022/12/19 08:43:53;;;;;;;11.52;7.30;;;;;;;-4.32;84.50;146262.53;5032344;28;20029;-61
2022/12/19 08:46:20;;;;;;;17.17;9.18;;;;;;;-4.30;83.71;146268.88;5027033;28;20098;-62
2022/12/19 08:48:45;;;;;;;16.17;8.73;;;;;;;-4.23;84.43;146285.31;5038651;28;20063;-61
2022/12/19 08:51:12;;;;;;;11.95;7.40;;;;;;;-4.23;85.04;146285.31;5030340;28;20022;-61
2022/12/19 08:53:40;;;;;;;11.00;7.60;;;;;;;-4.26;83.98;146277.72;5025451;28;20196;-62
2022/12/19 08:56:21;;;;;;;14.18;8.18;;;;;;;-4.04;83.71;146332.22;5028570;28;20120;-62
2022/12/19 08:58:49;;;;;;;38.67;21.45;;;;;;;-4.17;83.79;146301.78;5031466;28;20249;-62
2022/12/19 09:01:17;;;;;;;14.30;8.38;;;;;;;-4.02;84.44;146338.56;5033209;28;20029;-61
2022/12/19 09:03:44;;;;;;;12.80;7.57;;;;;;;-3.97;84.91;146348.69;5028850;28;20377;-62
2022/12/19 09:06:12;;;;;;;16.27;8.48;;;;;;;-4.02;83.68;146338.56;5028948;28;20034;-62
2022/12/19 09:08:39;;;;;;;13.82;7.70;;;;;;;-3.99;84.35;146346.16;5030634;28;20425;-63
2022/12/19 09:11:08;;;;;;;16.20;7.55;;;;;;;-4.06;84.54;146327.13;5029841;28;20381;-61
2022/12/19 09:13:36;;;;;;;13.98;8.10;;;;;;;-4.02;84.24;146338.56;5029552;28;20033;-61
2022/12/19 09:16:06;;;;;;;12.77;7.95;;;;;;;-4.05;83.54;146329.66;5030900;28;20046;-64
2022/12/19 09:18:33;;;;;;;14.82;8.35;;;;;;;-4.09;84.22;146320.81;5033236;28;20108;-62
2022/12/19 09:20:59;;;;;;;13.57;8.20;;;;;;;-4.02;83.53;146337.25;5034339;28;20033;-62
2022/12/19 09:23:26;;;;;;;12.77;7.35;;;;;;;-4.09;84.94;146320.81;5036413;28;20021;-61
2022/12/19 09:25:55;;;;;;;14.18;7.82;;;;;;;-4.08;84.22;146322.06;5035831;28;20097;-62
2022/12/19 09:28:21;;;;;;;12.02;8.00;;;;;;;-4.05;84.50;146330.91;5035482;28;20325;-61
2022/12/19 09:30:55;;;;;;;13.20;7.70;;;;;;;-4.09;84.13;146320.81;5035505;28;20037;-62
2022/12/19 09:33:21;;;;;;;14.30;8.07;;;;;;;-3.95;84.57;146353.75;5041727;28;20250;-62
2022/12/19 09:35:51;;;;;;;12.32;7.75;;;;;;;-3.92;85.14;146361.34;5025970;28;20072;-61
2022/12/19 09:38:18;;;;;;;11.80;7.68;;;;;;;-4.00;84.48;146343.59;5043523;28;20025;-62
2022/12/19 09:41:14;;;;;;;17.42;10.23;;;;;;;-3.82;84.51;146386.66;5033321;28;20153;-62
2022/12/19 09:43:58;;;;;;;18.02;8.77;;;;;;;-3.78;85.40;146395.56;5037908;28;20057;-63
2022/12/19 09:46:24;;;;;;;13.93;7.72;;;;;;;-3.79;84.71;146393.00;5036289;28;20087;-62
2022/12/19 09:48:55;;;;;;;15.43;7.70;;;;;;;-3.92;84.89;146361.34;5040103;28;20041;-62
2022/12/19 09:51:57;;;;;;;12.82;7.80;;;;;;;-3.73;85.40;146408.25;5042933;28;20026;-61
2022/12/19 09:54:43;;;;;;;16.08;7.90;;;;;;;-3.82;85.25;146386.66;5039587;28;20053;-62
2022/12/19 09:57:17;;;;;;;12.30;8.05;;;;;;;-4.18;84.48;146298.00;5037606;28;20353;-60
2022/12/19 09:59:50;;;;;;;11.02;8.02;;;;;;;-3.85;84.62;146379.06;5036473;28;20029;-61
2022/12/19 10:02:48;;;;;;;11.65;8.35;;;;;;;-3.60;85.35;146439.94;5029199;28;20475;-62
2022/12/19 10:05:32;;;;;;;12.63;8.50;;;;;;;-3.58;84.70;146446.22;5034343;28;20093;-62
2022/12/19 10:08:00;;;;;;;12.05;7.65;;;;;;;-3.55;84.65;146452.56;5037921;28;20037;-62
2022/12/19 10:10:49;;;;;;;12.88;7.93;;;;;;;-3.61;85.29;146437.38;5035737;28;20033;-62
2022/12/19 10:13:23;;;;;;;14.10;9.15;;;;;;;-3.57;85.23;146448.78;5035114;28;20025;-62
2022/12/19 10:16:02;;;;;;;14.52;9.05;;;;;;;-3.61;84.24;146438.63;5035397;28;20049;-62
2022/12/19 10:19:05;;;;;;;13.30;8.35;;;;;;;-3.53;85.11;146457.66;5033648;28;20037;-61
2022/12/19 10:21:41;;;;;;;30.63;17.92;;;;;;;-3.58;85.56;146444.97;5026005;28;20310;-62
2022/12/19 10:24:25;;;;;;;14.48;9.18;;;;;;;-3.37;84.58;146498.19;5038258;28;20053;-62
2022/12/19 10:26:59;;;;;;;16.48;9.77;;;;;;;-3.50;84.14;146466.50;5032692;28;20104;-62
2022/12/19 10:29:43;;;;;;;14.70;8.57;;;;;;;-3.24;84.20;146528.63;5033664;28;20026;-62
2022/12/19 10:32:21;;;;;;;14.95;9.45;;;;;;;-3.38;84.74;146495.66;5036166;28;20033;-61
2022/12/19 10:34:48;;;;;;;14.48;9.13;;;;;;;-3.26;84.13;146523.53;5033342;28;20325;-61
2022/12/19 10:37:23;;;;;;;13.55;9.20;;;;;;;-3.42;83.95;146485.56;5031560;28;20026;-63
2022/12/19 10:40:29;;;;;;;13.73;8.80;;;;;;;-3.19;84.42;146542.59;5041706;28;20314;-61
2022/12/19 10:43:37;;;;;;;17.58;8.70;;;;;;;-3.26;85.11;146524.84;5032402;28;20336;-61
2022/12/19 10:46:16;;;;;;;14.77;8.70;;;;;;;-3.24;84.70;146529.88;5032650;28;20037;-62
2022/12/19 10:48:42;;;;;;;13.82;8.80;;;;;;;-3.21;84.77;146537.47;5042431;28;20092;-62
2022/12/19 10:51:22;;;;;;;12.35;8.50;;;;;;;-3.27;84.75;146522.28;5033598;28;20218;-62
2022/12/19 10:53:56;;;;;;;13.52;8.45;;;;;;;-3.33;85.26;146507.09;5035268;28;20209;-61
2022/12/19 10:56:25;;;;;;;13.73;8.90;;;;;;;-3.13;85.41;146557.78;5032960;28;20034;-61
2022/12/19 10:58:56;;;;;;;14.60;8.85;;;;;;;-3.28;85.31;146518.50;5033294;28;20072;-62
2022/12/19 11:01:34;;;;;;;19.40;9.13;;;;;;;-3.38;86.27;146495.66;5031758;28;20162;-62
2022/12/19 11:04:21;;;;;;;17.35;9.57;;;;;;;-3.24;85.80;146529.88;5028662;28;20278;-62
2022/12/19 11:07:03;;;;;;;14.27;9.57;;;;;;;-3.20;86.33;146538.78;5036815;28;20037;-62
2022/12/19 11:09:34;;;;;;;15.15;9.40;;;;;;;-3.38;85.92;146494.41;5033184;28;20021;-62
2022/12/19 11:12:30;;;;;;;15.82;10.00;;;;;;;-3.34;86.63;146505.78;5033617;28;20029;-61
2022/12/19 11:15:08;;;;;;;15.48;9.55;;;;;;;-3.22;86.52;146534.97;5038415;28;20076;-62
2022/12/19 11:17:35;;;;;;;13.00;9.23;;;;;;;-3.22;86.77;146533.69;5030671;28;20048;-62
2022/12/19 11:20:18;;;;;;;13.60;8.90;;;;;;;-3.30;86.80;146515.94;5034216;28;20134;-62
2022/12/19 11:22:56;;;;;;;14.45;9.25;;;;;;;-3.13;86.68;146556.53;5036994;28;20067;-61
2022/12/19 11:25:34;;;;;;;16.13;9.63;;;;;;;-3.04;86.75;146578.06;5035401;28;20310;-62
2022/12/19 11:28:04;;;;;;;16.02;9.02;;;;;;;-3.16;87.10;146548.94;5034397;28;20061;-62
2022/12/19 11:30:29;;;;;;;15.52;9.48;;;;;;;-3.18;86.21;146545.13;5028341;28;20105;-62
2022/12/19 11:33:11;;;;;;;14.90;9.43;;;;;;;-3.06;87.25;146574.28;5033778;28;20044;-62
2022/12/19 11:35:47;;;;;;;15.52;9.85;;;;;;;-3.18;86.74;146545.13;5034955;28;20025;-62
2022/12/19 11:38:17;;;;;;;16.00;9.23;;;;;;;-3.15;86.92;146551.44;5023465;28;20038;-62
2022/12/19 11:40:49;;;;;;;14.63;9.05;;;;;;;-3.00;86.78;146589.47;5024076;28;20089;-61
2022/12/19 11:43:22;;;;;;;;;;;;;;;-2.95;86.49;146602.19;5031748;28;20037;-62